createdAt,value
2022-08-26T00:01:45.338Z,66.75
2022-08-26T00:06:48.509Z,61.83
2022-08-26T00:11:52.239Z,57.33
2022-08-26T00:16:55.175Z,59.90
2022-08-26T00:21:58.201Z,66.77
2022-08-26T00:27:00.957Z,62.61
2022-08-26T00:32:04.177Z,58.15
2022-08-26T00:37:08.725Z,58.75
2022-08-26T00:42:13.100Z,67.72
2022-08-26T00:47:34.113Z,62.95
2022-08-26T00:52:37.748Z,59.85
2022-08-26T00:57:42.582Z,57.00
2022-08-26T01:02:47.686Z,60.17
2022-08-26T01:07:50.772Z,66.64
2022-08-26T01:12:58.219Z,61.97
2022-08-26T01:18:04.070Z,57.82
2022-08-26T01:23:08.678Z,60.57
2022-08-26T01:28:21.825Z,66.40
2022-08-26T01:33:31.799Z,63.99
2022-08-26T01:38:45.244Z,59.89
2022-08-26T01:43:53.339Z,57.02
2022-08-26T01:49:00.263Z,59.26
2022-08-26T01:54:06.001Z,67.73
2022-08-26T01:59:12.539Z,63.21
2022-08-26T02:04:39.981Z,60.47
2022-08-26T02:09:51.152Z,56.58
2022-08-26T02:14:58.119Z,59.37
2022-08-26T02:20:02.434Z,68.21
2022-08-26T02:25:12.111Z,63.09
2022-08-26T02:30:25.442Z,60.15
2022-08-26T02:35:29.184Z,57.89
2022-08-26T02:40:39.313Z,60.46
2022-08-26T02:45:43.047Z,67.70
2022-08-26T02:50:46.356Z,62.02
2022-08-26T02:55:49.589Z,57.77
2022-08-26T03:00:53.786Z,59.91
2022-08-26T03:05:57.718Z,68.03
2022-08-26T03:11:01.665Z,62.39
2022-08-26T03:16:05.043Z,58.05
2022-08-26T03:21:14.570Z,59.65
2022-08-26T03:26:17.478Z,67.41
2022-08-26T03:31:20.200Z,62.47
2022-08-26T03:36:27.559Z,59.83
2022-08-26T03:41:32.722Z,57.36
2022-08-26T03:46:35.632Z,59.89
2022-08-26T03:51:39.215Z,66.84
2022-08-26T03:56:41.935Z,61.53
2022-08-26T04:01:44.690Z,57.73
2022-08-26T04:06:47.619Z,58.66
2022-08-26T04:11:50.896Z,66.40
2022-08-26T04:16:56.706Z,61.72
2022-08-26T04:22:00.267Z,57.33
2022-08-26T04:27:03.869Z,59.31
2022-08-26T04:32:08.820Z,67.18
2022-08-26T04:37:12.113Z,62.04
2022-08-26T04:42:19.886Z,57.99
2022-08-26T04:47:32.212Z,59.98
2022-08-26T04:52:36.894Z,67.54
2022-08-26T04:57:40.465Z,62.20
2022-08-26T05:02:43.299Z,58.26
2022-08-26T05:07:46.012Z,60.82
2022-08-26T05:12:49.090Z,67.33
2022-08-26T05:17:52.053Z,62.00
2022-08-26T05:22:54.726Z,57.83
2022-08-26T05:27:58.126Z,60.77
2022-08-26T05:33:02.015Z,67.03
2022-08-26T05:38:12.390Z,61.42
2022-08-26T05:43:16.849Z,56.89
2022-08-26T05:48:24.356Z,59.36
2022-08-26T05:53:27.372Z,66.43
2022-08-26T05:58:30.063Z,60.56
2022-08-26T06:03:37.433Z,56.37
2022-08-26T06:08:41.005Z,58.24
2022-08-26T06:13:45.042Z,64.00
2022-08-26T06:18:50.993Z,56.79
2022-08-26T06:24:13.665Z,58.94
2022-08-26T06:29:24.041Z,63.05
2022-08-26T06:34:31.092Z,61.36
2022-08-26T06:39:34.599Z,56.32
2022-08-26T06:44:38.046Z,61.59
2022-08-26T06:49:44.223Z,59.53
2022-08-26T06:54:47.285Z,56.52
2022-08-26T06:59:51.237Z,60.02
2022-08-26T07:04:54.436Z,62.17
2022-08-26T07:10:00.475Z,55.32
2022-08-26T07:15:04.922Z,56.39
2022-08-26T07:20:09.107Z,58.59
2022-08-26T07:25:12.329Z,59.69
2022-08-26T07:30:15.224Z,60.33
2022-08-26T07:35:18.459Z,60.42
2022-08-26T07:40:22.408Z,60.25
2022-08-26T07:45:25.394Z,59.13
2022-08-26T07:50:49.294Z,59.90
2022-08-26T07:55:51.556Z,59.30
2022-08-26T08:00:55.195Z,58.85
2022-08-26T08:05:57.973Z,58.22
2022-08-26T08:11:01.460Z,58.69
2022-08-26T08:16:05.738Z,58.79
2022-08-26T08:21:21.151Z,57.50
2022-08-26T08:26:26.642Z,57.67
2022-08-26T08:31:55.766Z,58.73
2022-08-26T08:36:57.198Z,58.08
2022-08-26T08:42:06.567Z,57.83
2022-08-26T08:47:35.626Z,57.35
2022-08-26T08:52:41.474Z,56.21
2022-08-26T08:58:02.271Z,55.34
2022-08-26T09:03:37.746Z,54.77
2022-08-26T09:08:41.718Z,54.71
2022-08-26T09:13:54.166Z,54.04
2022-08-26T09:19:35.022Z,52.88
2022-08-26T09:24:41.884Z,53.52
2022-08-26T09:29:51.001Z,54.44
2022-08-26T09:35:00.197Z,53.37
2022-08-26T09:40:34.554Z,52.70
2022-08-26T09:45:41.450Z,50.44
2022-08-26T09:50:54.812Z,50.19
2022-08-26T09:56:22.156Z,49.84
2022-08-26T10:01:34.969Z,49.41
2022-08-26T10:06:43.738Z,47.95
2022-08-26T10:11:51.979Z,47.94
2022-08-26T10:17:02.508Z,47.82
2022-08-26T10:22:16.805Z,46.94
2022-08-26T10:27:53.403Z,46.40
2022-08-26T10:33:03.889Z,45.67
2022-08-26T10:38:15.196Z,46.23
2022-08-26T10:43:26.400Z,45.51
2022-08-26T10:49:00.057Z,45.35
2022-08-26T10:54:29.103Z,46.73
2022-08-26T10:59:56.197Z,46.19
2022-08-26T11:05:16.971Z,46.18
2022-08-26T11:10:19.837Z,46.35
2022-08-26T11:15:26.508Z,46.20
2022-08-26T11:20:42.329Z,47.14
2022-08-26T11:26:08.725Z,47.09
2022-08-26T11:31:34.552Z,47.96
2022-08-26T11:36:40.750Z,47.77
2022-08-26T11:41:46.750Z,48.34
2022-08-26T11:47:00.997Z,47.46
2022-08-26T11:52:18.119Z,46.02
2022-08-26T11:57:24.160Z,44.66
2022-08-26T12:02:27.999Z,44.09
2022-08-26T12:07:30.838Z,42.71
2022-08-26T12:12:37.872Z,41.57
2022-08-26T12:17:41.968Z,40.59
2022-08-26T12:22:48.148Z,39.92
2022-08-26T12:27:54.081Z,39.74
2022-08-26T12:33:14.174Z,39.34
2022-08-26T12:38:28.123Z,39.21
2022-08-26T12:43:40.633Z,39.09
2022-08-26T12:48:48.968Z,38.64
2022-08-26T12:53:52.563Z,38.57
2022-08-26T12:59:10.242Z,39.40
2022-08-26T13:04:35.361Z,40.14
2022-08-26T13:09:38.674Z,40.68
2022-08-26T13:14:41.578Z,40.93
2022-08-26T13:19:44.429Z,40.67
2022-08-26T13:24:47.487Z,41.17
2022-08-26T13:29:51.417Z,40.22
2022-08-26T13:34:55.752Z,38.87
2022-08-26T13:39:59.305Z,37.83
2022-08-26T13:45:02.893Z,37.96
2022-08-26T13:50:06.454Z,37.82
2022-08-26T13:55:12.095Z,36.50
2022-08-26T14:00:17.477Z,35.69
2022-08-26T14:05:20.343Z,36.11
2022-08-26T14:10:24.285Z,36.09
2022-08-26T14:15:28.023Z,36.00
2022-08-26T14:20:33.666Z,37.78
2022-08-26T14:25:36.463Z,38.72
2022-08-26T14:30:42.441Z,39.68
2022-08-26T14:35:49.006Z,40.87
2022-08-26T14:40:52.958Z,40.16
2022-08-26T14:45:56.067Z,38.49
2022-08-26T14:50:59.073Z,37.10
2022-08-26T14:56:02.491Z,35.88
2022-08-26T15:01:07.952Z,34.22
2022-08-26T15:06:11.675Z,33.12
2022-08-26T15:11:14.783Z,30.90
2022-08-26T15:16:17.724Z,30.89
2022-08-26T15:21:22.244Z,28.48
2022-08-26T15:26:25.235Z,26.28
2022-08-26T15:31:31.465Z,24.98
2022-08-26T15:36:37.290Z,25.71
2022-08-26T15:41:41.217Z,24.23
2022-08-26T15:46:44.710Z,25.27
2022-08-26T15:51:50.712Z,25.61
2022-08-26T15:56:53.942Z,25.86
2022-08-26T16:01:58.231Z,26.04
2022-08-26T16:07:01.470Z,26.12
2022-08-26T16:12:04.601Z,25.88
2022-08-26T16:17:07.483Z,25.83
2022-08-26T16:22:10.391Z,27.19
2022-08-26T16:27:13.242Z,29.02
2022-08-26T16:32:16.399Z,30.35
2022-08-26T16:37:19.303Z,31.71
2022-08-26T16:42:22.309Z,33.01
2022-08-26T16:47:25.728Z,34.01
2022-08-26T16:52:30.184Z,34.98
2022-08-26T16:57:39.647Z,35.85
2022-08-26T17:02:42.555Z,36.98
2022-08-26T17:07:45.532Z,37.88
2022-08-26T17:12:48.943Z,38.53
2022-08-26T17:17:52.262Z,38.94
2022-08-26T17:22:55.623Z,39.17
2022-08-26T17:27:59.368Z,39.88
2022-08-26T17:33:02.379Z,40.44
2022-08-26T17:38:14.095Z,41.17
2022-08-26T17:43:17.820Z,42.22
2022-08-26T17:48:20.496Z,43.63
2022-08-26T17:53:24.994Z,44.73
2022-08-26T17:58:27.693Z,45.94
2022-08-26T18:03:32.687Z,46.69
2022-08-26T18:08:35.690Z,47.49
2022-08-26T18:13:39.389Z,48.10
2022-08-26T18:18:53.531Z,48.64
2022-08-26T18:23:57.473Z,49.27
2022-08-26T18:29:00.414Z,49.67
2022-08-26T18:34:03.468Z,50.71
2022-08-26T18:39:08.430Z,50.98
2022-08-26T18:44:13.823Z,51.82
2022-08-26T18:49:19.033Z,52.37
2022-08-26T18:54:22.188Z,52.53
2022-08-26T18:59:29.712Z,52.06
2022-08-26T19:04:33.313Z,51.87
2022-08-26T19:09:36.512Z,53.27
2022-08-26T19:14:39.269Z,53.36
2022-08-26T19:19:42.206Z,53.36
2022-08-26T19:24:44.917Z,53.44
2022-08-26T19:29:47.837Z,53.68
2022-08-26T19:34:52.233Z,53.83
2022-08-26T19:39:55.069Z,53.92
2022-08-26T19:45:24.726Z,54.16
2022-08-26T19:50:30.706Z,54.34
2022-08-26T19:55:33.868Z,54.65
2022-08-26T20:00:39.779Z,55.46
2022-08-26T20:05:42.629Z,56.50
2022-08-26T20:10:46.810Z,57.11
2022-08-26T20:15:49.534Z,57.66
2022-08-26T20:21:30.771Z,58.35
2022-08-26T20:26:35.518Z,58.61
2022-08-26T20:31:39.414Z,59.45
2022-08-26T20:36:43.189Z,59.77
2022-08-26T20:41:46.073Z,60.22
2022-08-26T20:46:49.181Z,60.55
2022-08-26T20:51:52.739Z,60.88
2022-08-26T20:56:57.056Z,69.51
2022-08-26T21:02:00.657Z,64.11
2022-08-26T21:07:03.564Z,55.04
2022-08-26T21:12:08.105Z,53.67
2022-08-26T21:17:11.008Z,55.04
2022-08-26T21:22:14.348Z,56.58
2022-08-26T21:27:17.686Z,57.61
2022-08-26T21:32:29.244Z,58.89
2022-08-26T21:37:32.353Z,59.81
2022-08-26T21:42:36.176Z,60.48
2022-08-26T21:47:39.724Z,61.03
2022-08-26T21:52:42.597Z,69.17
2022-08-26T21:57:45.808Z,61.44
2022-08-26T22:02:50.453Z,53.60
2022-08-26T22:07:53.776Z,53.20
2022-08-26T22:12:56.773Z,54.91
2022-08-26T22:17:59.782Z,56.52
2022-08-26T22:23:02.785Z,57.59
2022-08-26T22:28:06.502Z,58.96
2022-08-26T22:33:09.923Z,60.71
2022-08-26T22:38:13.722Z,69.05
2022-08-26T22:43:18.559Z,63.14
2022-08-26T22:48:24.174Z,54.70
2022-08-26T22:53:27.388Z,53.96
2022-08-26T22:58:30.981Z,55.81
2022-08-26T23:03:35.322Z,57.59
2022-08-26T23:08:39.676Z,59.29
2022-08-26T23:13:42.987Z,67.20
2022-08-26T23:18:46.093Z,59.66
2022-08-26T23:23:49.071Z,53.34
2022-08-26T23:28:53.436Z,54.30
2022-08-26T23:34:15.184Z,55.71
2022-08-26T23:39:18.187Z,57.23
2022-08-26T23:44:21.436Z,58.68
2022-08-26T23:49:25.625Z,59.98
2022-08-26T23:54:28.540Z,68.46
2022-08-26T23:59:32.005Z,59.74
